Time;durP1;ratioP1;P1;durP2;ratioP2;P2;SDS_P1;SDS_P2;PMS_P1;PMS_P2;Temp;Humidity;BMP_temperature;BMP_pressure;BME280_temperature;BME280_humidity;BME280_pressure;Samples;Min_cycle;Max_cycle;Signal;HPM_P1;HPM_P2
2022/01/07 00:00:53;;;;;;;11.10;4.63;;;;;;;;;;5133763;27;20239;-81
2022/01/07 00:03:22;;;;;;;10.35;3.63;;;;;;;;;;5150513;27;20055;-81
2022/01/07 00:05:48;;;;;;;12.32;4.25;;;;;;;;;;5129491;27;20051;-81
2022/01/07 00:08:15;;;;;;;15.23;4.38;;;;;;;;;;5132482;27;20116;-81
2022/01/07 00:10:41;;;;;;;11.88;4.25;;;;;;;;;;5150953;27;20070;-81
2022/01/07 00:13:07;;;;;;;14.23;4.15;;;;;;;;;;5133208;27;20496;-81
2022/01/07 00:15:34;;;;;;;13.98;4.72;;;;;;;;;;5132779;27;20070;-81
2022/01/07 00:18:00;;;;;;;11.45;4.35;;;;;;;;;;5133054;27;20134;-82
2022/01/07 00:20:27;;;;;;;10.20;3.78;;;;;;;;;;5136410;27;20081;-81
2022/01/07 00:22:53;;;;;;;10.68;3.88;;;;;;;;;;5132850;27;20084;-81
2022/01/07 00:25:22;;;;;;;12.82;4.28;;;;;;;;;;5148597;27;20082;-81
2022/01/07 00:27:49;;;;;;;10.38;3.90;;;;;;;;;;5113773;27;20087;-81
2022/01/07 00:30:16;;;;;;;17.35;4.45;;;;;;;;;;5144648;27;20059;-81
2022/01/07 00:32:42;;;;;;;17.15;4.75;;;;;;;;;;5132998;27;20059;-81
2022/01/07 00:35:09;;;;;;;13.38;4.05;;;;;;;;;;5134414;27;20106;-83
2022/01/07 00:37:36;;;;;;;11.75;4.32;;;;;;;;;;5133905;27;20109;-81
2022/01/07 00:40:07;;;;;;;10.52;3.97;;;;;;;;;;5133862;27;21009;-81
2022/01/07 00:42:34;;;;;;;11.15;4.28;;;;;;;;;;5150334;27;20418;-81
2022/01/07 00:45:00;;;;;;;11.95;4.30;;;;;;;;;;5134042;27;20047;-82
2022/01/07 00:47:26;;;;;;;12.35;4.38;;;;;;;;;;5134348;27;20054;-81
2022/01/07 00:49:53;;;;;;;13.98;5.07;;;;;;;;;;5133373;27;20055;-81
2022/01/07 00:52:19;;;;;;;13.82;3.90;;;;;;;;;;5151704;27;20078;-81
2022/01/07 00:54:45;;;;;;;13.00;4.75;;;;;;;;;;5151941;27;20086;-80
2022/01/07 00:57:12;;;;;;;12.10;4.25;;;;;;;;;;5133655;27;20687;-81
2022/01/07 00:59:39;;;;;;;10.75;4.43;;;;;;;;;;5146289;27;20056;-82
2022/01/07 01:02:06;;;;;;;17.60;4.60;;;;;;;;;;5136101;27;20493;-81
2022/01/07 01:04:42;;;;;;;12.93;4.13;;;;;;;;;;5140001;27;20538;-81
2022/01/07 01:07:09;;;;;;;10.95;4.50;;;;;;;;;;5153828;27;20058;-82
2022/01/07 01:09:35;;;;;;;10.57;4.60;;;;;;;;;;5144063;27;20109;-81
2022/01/07 01:12:03;;;;;;;10.82;3.95;;;;;;;;;;5126081;27;20057;-81
2022/01/07 01:14:30;;;;;;;8.90;3.88;;;;;;;;;;5139998;27;20126;-81
2022/01/07 01:16:58;;;;;;;16.77;4.50;;;;;;;;;;5132678;27;20598;-81
2022/01/07 01:19:25;;;;;;;11.23;4.03;;;;;;;;;;5149978;27;20054;-81
2022/01/07 01:21:51;;;;;;;13.93;4.07;;;;;;;;;;5151521;27;20074;-81
2022/01/07 01:24:18;;;;;;;10.20;4.20;;;;;;;;;;5140405;27;20062;-82
2022/01/07 01:26:44;;;;;;;11.25;3.78;;;;;;;;;;5152018;27;20055;-81
2022/01/07 01:29:11;;;;;;;10.32;3.25;;;;;;;;;;5151185;27;20132;-82
2022/01/07 01:31:37;;;;;;;7.53;3.20;;;;;;;;;;5127655;27;20133;-82
2022/01/07 01:34:04;;;;;;;14.55;4.22;;;;;;;;;;5123203;27;20138;-81
2022/01/07 01:36:31;;;;;;;8.02;3.65;;;;;;;;;;5118218;27;20509;-81
2022/01/07 01:38:59;;;;;;;16.20;4.32;;;;;;;;;;5149782;27;20051;-81
2022/01/07 01:41:25;;;;;;;12.57;3.85;;;;;;;;;;5133905;27;20117;-81
2022/01/07 01:43:52;;;;;;;16.70;4.28;;;;;;;;;;5161472;27;20083;-81
2022/01/07 01:46:18;;;;;;;15.73;4.40;;;;;;;;;;5132637;27;20047;-81
2022/01/07 01:48:45;;;;;;;9.30;3.88;;;;;;;;;;5130950;27;20055;-81
2022/01/07 01:51:12;;;;;;;9.30;3.53;;;;;;;;;;5127450;27;20075;-81
2022/01/07 01:53:39;;;;;;;11.77;3.78;;;;;;;;;;5142339;27;20109;-82
2022/01/07 01:56:05;;;;;;;12.57;4.13;;;;;;;;;;5132492;27;20051;-81
2022/01/07 01:58:32;;;;;;;14.38;4.65;;;;;;;;;;5132289;27;20510;-81
2022/01/07 02:00:58;;;;;;;11.27;4.43;;;;;;;;;;5144940;27;20079;-81
2022/01/07 02:03:25;;;;;;;13.25;4.97;;;;;;;;;;5138280;27;20080;-81
2022/01/07 02:05:51;;;;;;;8.77;3.25;;;;;;;;;;5171812;27;20135;-82
2022/01/07 02:08:18;;;;;;;12.65;3.83;;;;;;;;;;5141185;27;20078;-81
2022/01/07 02:10:44;;;;;;;10.05;3.75;;;;;;;;;;5150117;27;20116;-81
2022/01/07 02:13:11;;;;;;;20.20;4.78;;;;;;;;;;5150407;27;20079;-81
2022/01/07 02:15:38;;;;;;;10.27;3.92;;;;;;;;;;5131632;27;21832;-80
2022/01/07 02:18:04;;;;;;;11.50;3.35;;;;;;;;;;5150701;27;20062;-81
2022/01/07 02:20:31;;;;;;;10.05;3.72;;;;;;;;;;5136619;27;20078;-81
2022/01/07 02:22:58;;;;;;;15.18;4.80;;;;;;;;;;5130324;27;20521;-81
2022/01/07 02:25:25;;;;;;;14.60;4.55;;;;;;;;;;5122099;27;20055;-81
2022/01/07 02:27:51;;;;;;;16.52;4.60;;;;;;;;;;5143257;27;20079;-80
2022/01/07 02:30:23;;;;;;;13.40;3.80;;;;;;;;;;5118329;27;20047;-80
2022/01/07 02:32:49;;;;;;;14.20;4.28;;;;;;;;;;5148096;27;20062;-81
2022/01/07 02:35:16;;;;;;;11.85;4.47;;;;;;;;;;5149476;27;20146;-81
2022/01/07 02:37:43;;;;;;;12.75;4.32;;;;;;;;;;5130582;27;20105;-80
2022/01/07 02:40:10;;;;;;;13.45;4.35;;;;;;;;;;5131016;27;20110;-80
2022/01/07 02:42:37;;;;;;;11.95;4.85;;;;;;;;;;5145734;27;20052;-80
2022/01/07 02:45:08;;;;;;;12.02;3.95;;;;;;;;;;5161491;27;20982;-80
2022/01/07 02:47:49;;;;;;;12.68;4.47;;;;;;;;;;5152050;27;20055;-80
2022/01/07 02:50:17;;;;;;;12.18;4.07;;;;;;;;;;5139479;27;20505;-81
2022/01/07 02:52:43;;;;;;;17.15;4.53;;;;;;;;;;5153097;27;20612;-81
2022/01/07 02:55:10;;;;;;;14.13;4.25;;;;;;;;;;5149856;27;20085;-80
2022/01/07 02:57:37;;;;;;;11.63;3.95;;;;;;;;;;5158044;27;20051;-80
2022/01/07 03:00:04;;;;;;;13.82;4.10;;;;;;;;;;5151968;27;20104;-80
2022/01/07 03:02:31;;;;;;;9.18;4.22;;;;;;;;;;5152832;27;20051;-80
2022/01/07 03:04:57;;;;;;;9.25;4.07;;;;;;;;;;5152737;27;20051;-80
2022/01/07 03:07:24;;;;;;;17.13;4.75;;;;;;;;;;5152440;27;20490;-81
2022/01/07 03:09:50;;;;;;;11.15;4.25;;;;;;;;;;5151494;27;20047;-80
2022/01/07 03:12:16;;;;;;;12.60;4.20;;;;;;;;;;5139981;27;20477;-80
2022/01/07 03:14:43;;;;;;;14.60;4.93;;;;;;;;;;5145383;27;20429;-84
2022/01/07 03:17:09;;;;;;;12.00;4.10;;;;;;;;;;5153323;27;20113;-82
2022/01/07 03:19:35;;;;;;;12.27;3.85;;;;;;;;;;5149933;27;20152;-83
2022/01/07 03:22:03;;;;;;;12.77;4.35;;;;;;;;;;5132202;27;20059;-80
2022/01/07 03:24:29;;;;;;;14.45;4.90;;;;;;;;;;5143243;27;20107;-80
2022/01/07 03:26:55;;;;;;;12.07;5.30;;;;;;;;;;5134624;27;20118;-80
2022/01/07 03:29:22;;;;;;;17.27;4.95;;;;;;;;;;5150613;27;20083;-83
2022/01/07 03:31:48;;;;;;;12.52;4.78;;;;;;;;;;5129602;27;20090;-82
2022/01/07 03:34:14;;;;;;;11.88;4.43;;;;;;;;;;5140441;27;20113;-81
2022/01/07 03:36:41;;;;;;;12.32;5.18;;;;;;;;;;5134313;27;20051;-80
2022/01/07 03:39:08;;;;;;;11.10;4.90;;;;;;;;;;5133970;27;20058;-80
2022/01/07 03:41:34;;;;;;;12.55;4.55;;;;;;;;;;5152043;27;20135;-83
2022/01/07 03:44:01;;;;;;;11.25;4.63;;;;;;;;;;5154337;27;20525;-83
2022/01/07 03:46:27;;;;;;;14.43;4.80;;;;;;;;;;5152417;27;20086;-80
2022/01/07 03:48:53;;;;;;;15.25;5.30;;;;;;;;;;5152547;27;20047;-81
2022/01/07 03:51:20;;;;;;;11.05;4.78;;;;;;;;;;5135151;27;20047;-80
2022/01/07 03:53:46;;;;;;;9.13;5.50;;;;;;;;;;5133533;27;20055;-81
2022/01/07 03:56:17;;;;;;;10.45;5.03;;;;;;;;;;5152579;27;20095;-80
2022/01/07 03:58:44;;;;;;;9.05;5.38;;;;;;;;;;5151739;27;20152;-80
2022/01/07 04:01:11;;;;;;;8.65;4.80;;;;;;;;;;5134120;27;20067;-80
2022/01/07 04:03:38;;;;;;;9.60;4.95;;;;;;;;;;5128885;27;20055;-83
2022/01/07 04:06:04;;;;;;;11.57;5.07;;;;;;;;;;5150445;27;20587;-81
2022/01/07 04:08:30;;;;;;;7.35;3.92;;;;;;;;;;5149829;27;20081;-79
2022/01/07 04:10:57;;;;;;;10.02;5.10;;;;;;;;;;5133203;27;22225;-80
2022/01/07 04:13:23;;;;;;;9.40;4.65;;;;;;;;;;5151427;27;20077;-79
2022/01/07 04:15:50;;;;;;;9.80;5.25;;;;;;;;;;5133562;27;20051;-80
2022/01/07 04:18:16;;;;;;;10.98;4.93;;;;;;;;;;5151800;27;20578;-79
2022/01/07 04:20:42;;;;;;;10.85;5.95;;;;;;;;;;5133613;27;20055;-83
2022/01/07 04:23:09;;;;;;;8.38;4.93;;;;;;;;;;5151543;27;20515;-81
2022/01/07 04:25:40;;;;;;;9.52;4.88;;;;;;;;;;5128261;27;20046;-80
2022/01/07 04:28:07;;;;;;;14.65;6.22;;;;;;;;;;5132986;27;20055;-81
2022/01/07 04:30:34;;;;;;;13.27;6.28;;;;;;;;;;5152122;27;20055;-80
2022/01/07 04:33:02;;;;;;;16.83;6.25;;;;;;;;;;5170825;27;20051;-83
2022/01/07 04:35:29;;;;;;;12.35;5.63;;;;;;;;;;5150848;27;20137;-80
2022/01/07 04:37:55;;;;;;;12.95;6.32;;;;;;;;;;5133161;27;20109;-83
2022/01/07 04:40:22;;;;;;;11.00;6.25;;;;;;;;;;5149544;27;20075;-81
2022/01/07 04:42:49;;;;;;;13.18;6.97;;;;;;;;;;5150297;27;20509;-80
2022/01/07 04:45:16;;;;;;;12.77;6.60;;;;;;;;;;5129994;27;20040;-84
2022/01/07 04:47:42;;;;;;;12.20;6.80;;;;;;;;;;5170380;27;20164;-81
2022/01/07 04:50:13;;;;;;;13.60;7.30;;;;;;;;;;5154090;27;20043;-82
2022/01/07 04:52:43;;;;;;;13.80;6.70;;;;;;;;;;5148189;27;20112;-83
2022/01/07 04:55:14;;;;;;;12.63;6.85;;;;;;;;;;5133858;27;20079;-80
2022/01/07 04:57:41;;;;;;;14.48;7.65;;;;;;;;;;5139283;27;20079;-80
2022/01/07 05:00:08;;;;;;;18.52;7.70;;;;;;;;;;5111596;27;20071;-79
2022/01/07 05:02:34;;;;;;;17.85;8.00;;;;;;;;;;5147130;27;20505;-80
2022/01/07 05:05:01;;;;;;;16.63;7.85;;;;;;;;;;5132281;27;20051;-83
2022/01/07 05:07:27;;;;;;;15.80;7.38;;;;;;;;;;5150905;27;20142;-81
2022/01/07 05:09:53;;;;;;;15.63;8.13;;;;;;;;;;5133193;27;20097;-80
2022/01/07 05:12:20;;;;;;;15.85;7.63;;;;;;;;;;5128329;27;20075;-81
2022/01/07 05:14:46;;;;;;;17.55;8.15;;;;;;;;;;5146566;27;20082;-84
2022/01/07 05:17:12;;;;;;;16.75;9.07;;;;;;;;;;5132231;27;20083;-80
2022/01/07 05:19:38;;;;;;;18.27;8.45;;;;;;;;;;5150751;27;20580;-80
2022/01/07 05:22:06;;;;;;;18.40;8.90;;;;;;;;;;5150426;27;20070;-81
2022/01/07 05:24:32;;;;;;;19.00;9.02;;;;;;;;;;5132138;27;20478;-81
2022/01/07 05:26:59;;;;;;;17.65;9.48;;;;;;;;;;5150485;27;20047;-80
2022/01/07 05:29:25;;;;;;;15.48;8.73;;;;;;;;;;5131653;27;20497;-80
2022/01/07 05:31:52;;;;;;;19.52;10.38;;;;;;;;;;5125681;27;20128;-83
2022/01/07 05:34:18;;;;;;;20.27;9.77;;;;;;;;;;5138561;27;20138;-83
2022/01/07 05:36:45;;;;;;;19.30;10.80;;;;;;;;;;5149900;27;20109;-81
2022/01/07 05:39:11;;;;;;;22.95;11.65;;;;;;;;;;5150267;27;20043;-80
2022/01/07 05:41:38;;;;;;;21.83;11.15;;;;;;;;;;5149795;27;20074;-80
2022/01/07 05:44:05;;;;;;;24.75;11.95;;;;;;;;;;5150460;27;20213;-82
2022/01/07 05:46:31;;;;;;;21.55;11.32;;;;;;;;;;5131973;27;20054;-81
2022/01/07 05:48:58;;;;;;;24.35;12.70;;;;;;;;;;5124818;27;20514;-80
2022/01/07 05:51:24;;;;;;;24.92;12.85;;;;;;;;;;5111763;27;20051;-80
2022/01/07 05:53:50;;;;;;;27.10;12.73;;;;;;;;;;5136010;27;20108;-80
2022/01/07 05:56:17;;;;;;;26.60;12.70;;;;;;;;;;5150517;27;20139;-80
2022/01/07 05:58:43;;;;;;;26.08;13.05;;;;;;;;;;5136444;27;20055;-81
2022/01/07 06:01:11;;;;;;;29.42;14.40;;;;;;;;;;5150346;27;20086;-81
2022/01/07 06:03:38;;;;;;;31.85;13.77;;;;;;;;;;5144592;27;20059;-80
2022/01/07 06:06:05;;;;;;;34.67;13.73;;;;;;;;;;5140190;27;20082;-80
2022/01/07 06:08:31;;;;;;;27.40;14.18;;;;;;;;;;5171174;27;20094;-80
2022/01/07 06:10:58;;;;;;;28.77;14.25;;;;;;;;;;5168103;27;20055;-83
2022/01/07 06:13:24;;;;;;;27.15;14.25;;;;;;;;;;5149911;27;20050;-82
2022/01/07 06:15:50;;;;;;;26.42;14.43;;;;;;;;;;5137977;27;20048;-81
2022/01/07 06:18:17;;;;;;;29.73;14.88;;;;;;;;;;5150574;27;20059;-80
2022/01/07 06:20:43;;;;;;;31.23;13.85;;;;;;;;;;5131858;27;20101;-80
2022/01/07 06:23:10;;;;;;;32.33;14.35;;;;;;;;;;5130935;27;20125;-80
2022/01/07 06:25:36;;;;;;;28.83;14.98;;;;;;;;;;5149993;27;20051;-83
2022/01/07 06:28:03;;;;;;;30.70;15.38;;;;;;;;;;5141625;27;20079;-82
2022/01/07 06:30:29;;;;;;;31.42;15.18;;;;;;;;;;5149173;27;20035;-81
2022/01/07 06:32:56;;;;;;;32.97;15.85;;;;;;;;;;5152793;27;20086;-80
2022/01/07 06:35:22;;;;;;;31.10;15.82;;;;;;;;;;5154300;27;20562;-80
2022/01/07 06:37:49;;;;;;;35.10;15.90;;;;;;;;;;5170940;27;20096;-80
2022/01/07 06:40:15;;;;;;;31.30;16.00;;;;;;;;;;5140207;27;20591;-81
2022/01/07 06:42:41;;;;;;;31.08;17.70;;;;;;;;;;5124158;27;20106;-80
2022/01/07 06:45:08;;;;;;;34.50;16.00;;;;;;;;;;5119933;27;20641;-82
2022/01/07 06:47:34;;;;;;;34.55;15.45;;;;;;;;;;5167793;27;20138;-81
2022/01/07 06:50:01;;;;;;;31.88;16.00;;;;;;;;;;5151135;27;20555;-80
2022/01/07 06:52:28;;;;;;;32.63;16.48;;;;;;;;;;5138169;27;20056;-80
2022/01/07 06:54:55;;;;;;;32.47;16.98;;;;;;;;;;5151858;27;20074;-80
2022/01/07 06:57:22;;;;;;;34.38;17.48;;;;;;;;;;5153005;27;20078;-80
2022/01/07 06:59:48;;;;;;;35.78;17.63;;;;;;;;;;5138942;27;20055;-81
2022/01/07 07:02:14;;;;;;;37.58;17.95;;;;;;;;;;5153112;27;20141;-81
2022/01/07 07:04:41;;;;;;;31.92;16.25;;;;;;;;;;5152940;27;20062;-80
2022/01/07 07:07:07;;;;;;;34.13;18.15;;;;;;;;;;5152401;27;20516;-81
2022/01/07 07:09:34;;;;;;;36.88;17.42;;;;;;;;;;5140561;27;20079;-81
2022/01/07 07:12:01;;;;;;;40.13;16.95;;;;;;;;;;5152212;27;20050;-81
2022/01/07 07:14:28;;;;;;;34.60;18.45;;;;;;;;;;5142082;27;20074;-83
2022/01/07 07:16:54;;;;;;;31.10;15.95;;;;;;;;;;5161441;27;20089;-81
2022/01/07 07:19:22;;;;;;;39.97;17.88;;;;;;;;;;5159648;27;20101;-80
2022/01/07 07:21:48;;;;;;;39.45;17.85;;;;;;;;;;5138441;27;20047;-81
2022/01/07 07:24:15;;;;;;;34.28;17.80;;;;;;;;;;5152570;27;20137;-81
2022/01/07 07:26:41;;;;;;;36.47;16.98;;;;;;;;;;5148327;27;20132;-80
2022/01/07 07:29:08;;;;;;;38.33;18.23;;;;;;;;;;5140394;27;20071;-81
2022/01/07 07:31:38;;;;;;;38.30;16.80;;;;;;;;;;5146782;27;20051;-83
2022/01/07 07:36:34;;;;;;;29.98;15.98;;;;;;;;;;5152146;27;20093;-83
2022/01/07 07:39:03;;;;;;;35.17;16.73;;;;;;;;;;5132619;27;20056;-81
2022/01/07 07:41:31;;;;;;;33.92;16.42;;;;;;;;;;5152346;27;20079;-80
2022/01/07 07:43:57;;;;;;;41.20;17.55;;;;;;;;;;5134234;27;20051;-81
2022/01/07 07:46:24;;;;;;;33.60;16.73;;;;;;;;;;5159513;27;20052;-80
2022/01/07 07:48:51;;;;;;;32.72;16.80;;;;;;;;;;5145865;27;20058;-81
2022/01/07 07:51:18;;;;;;;27.80;15.52;;;;;;;;;;5152262;27;20078;-81
2022/01/07 07:53:45;;;;;;;36.88;17.55;;;;;;;;;;5134038;27;20036;-81
2022/01/07 07:56:12;;;;;;;35.80;17.88;;;;;;;;;;5151740;27;20055;-82
2022/01/07 07:58:39;;;;;;;37.05;18.00;;;;;;;;;;5152107;27;20051;-81
2022/01/07 08:01:05;;;;;;;33.80;17.85;;;;;;;;;;5153616;27;20082;-83
2022/01/07 08:03:32;;;;;;;34.53;17.30;;;;;;;;;;5151165;27;20083;-82
2022/01/07 08:05:59;;;;;;;34.35;16.25;;;;;;;;;;5132461;27;20078;-81
2022/01/07 08:08:27;;;;;;;36.63;17.80;;;;;;;;;;5133107;27;20051;-81
2022/01/07 08:10:57;;;;;;;28.95;16.25;;;;;;;;;;5130595;27;20082;-81
2022/01/07 08:13:29;;;;;;;30.93;15.23;;;;;;;;;;5144076;27;20137;-81
2022/01/07 08:16:00;;;;;;;38.72;17.73;;;;;;;;;;5151906;27;20551;-81
2022/01/07 08:18:30;;;;;;;32.33;16.20;;;;;;;;;;5151582;27;20059;-82
2022/01/07 08:21:00;;;;;;;39.47;16.98;;;;;;;;;;5152351;27;20047;-81
2022/01/07 08:23:27;;;;;;;30.40;15.80;;;;;;;;;;5151292;27;20055;-83
2022/01/07 08:25:55;;;;;;;41.72;17.73;;;;;;;;;;5122873;27;20059;-82
2022/01/07 08:28:25;;;;;;;30.55;15.18;;;;;;;;;;5152390;27;20035;-81
2022/01/07 08:36:19;;;;;;;33.97;15.68;;;;;;;;;;5145564;27;20062;-81
2022/01/07 08:38:47;;;;;;;32.17;16.15;;;;;;;;;;5150646;27;20091;-81
2022/01/07 08:41:14;;;;;;;29.90;15.95;;;;;;;;;;5147125;27;20051;-83
2022/01/07 08:43:40;;;;;;;32.53;17.13;;;;;;;;;;5151602;27;20051;-82
2022/01/07 08:46:07;;;;;;;30.90;16.58;;;;;;;;;;5145535;27;20051;-81
2022/01/07 08:48:35;;;;;;;32.83;16.15;;;;;;;;;;5138672;27;20043;-81
2022/01/07 08:51:02;;;;;;;30.88;15.63;;;;;;;;;;5131160;27;20075;-81
2022/01/07 08:53:28;;;;;;;27.50;13.60;;;;;;;;;;5134147;27;20567;-81
2022/01/07 08:55:55;;;;;;;24.45;12.95;;;;;;;;;;5126409;27;20094;-81
2022/01/07 08:58:21;;;;;;;34.50;15.68;;;;;;;;;;5141158;27;20586;-81
2022/01/07 09:00:48;;;;;;;27.65;14.40;;;;;;;;;;5130131;27;20078;-81
2022/01/07 09:03:14;;;;;;;28.25;14.30;;;;;;;;;;5138707;27;20062;-81
2022/01/07 09:05:41;;;;;;;27.85;13.23;;;;;;;;;;5132995;27;20146;-80
2022/01/07 09:08:10;;;;;;;27.67;13.05;;;;;;;;;;5155207;27;20060;-80
2022/01/07 09:10:36;;;;;;;24.85;12.75;;;;;;;;;;5147607;27;20098;-79
2022/01/07 09:13:02;;;;;;;27.00;13.23;;;;;;;;;;5146154;27;20086;-80
2022/01/07 09:15:29;;;;;;;28.95;13.35;;;;;;;;;;5133455;27;20040;-80
2022/01/07 09:17:55;;;;;;;26.45;12.15;;;;;;;;;;5156100;27;20058;-80
2022/01/07 09:20:22;;;;;;;28.50;12.63;;;;;;;;;;5153221;27;20117;-80
2022/01/07 09:22:49;;;;;;;24.00;12.15;;;;;;;;;;5132817;27;20051;-80
2022/01/07 09:25:15;;;;;;;24.88;12.75;;;;;;;;;;5116641;27;20119;-80
2022/01/07 09:27:42;;;;;;;24.90;12.55;;;;;;;;;;5143638;27;20050;-80
2022/01/07 09:30:12;;;;;;;21.67;11.38;;;;;;;;;;5133412;27;20047;-80
2022/01/07 09:32:39;;;;;;;22.63;10.73;;;;;;;;;;5155773;27;20135;-80
2022/01/07 09:35:06;;;;;;;23.75;11.07;;;;;;;;;;5148319;27;20039;-80
2022/01/07 09:37:32;;;;;;;24.45;11.18;;;;;;;;;;5150533;27;20051;-80
2022/01/07 09:40:00;;;;;;;24.55;11.35;;;;;;;;;;5159946;27;20035;-80
2022/01/07 09:42:27;;;;;;;24.27;10.88;;;;;;;;;;5163402;27;20112;-80
2022/01/07 09:44:55;;;;;;;31.88;10.85;;;;;;;;;;5137379;27;20082;-80
2022/01/07 09:47:22;;;;;;;23.20;10.35;;;;;;;;;;5122886;27;20060;-80
2022/01/07 09:49:48;;;;;;;25.55;11.15;;;;;;;;;;5154531;27;20055;-80
2022/01/07 09:52:14;;;;;;;20.48;10.00;;;;;;;;;;5149136;27;20051;-79
2022/01/07 09:54:41;;;;;;;24.17;10.30;;;;;;;;;;5148526;27;21053;-79
2022/01/07 09:57:08;;;;;;;21.95;10.27;;;;;;;;;;5150496;27;20922;-80
2022/01/07 09:59:35;;;;;;;19.13;10.68;;;;;;;;;;5131501;27;20077;-79
2022/01/07 10:02:02;;;;;;;24.20;10.70;;;;;;;;;;5134803;27;20532;-79
2022/01/07 10:04:33;;;;;;;17.80;9.65;;;;;;;;;;5143153;27;20054;-80
2022/01/07 10:06:59;;;;;;;;;;;;;;;;;;5142742;27;20495;-80
2022/01/07 10:09:26;;;;;;;21.98;9.88;;;;;;;;;;5151536;27;46021;-80
2022/01/07 10:12:01;;;;;;;20.48;8.85;;;;;;;;;;5130933;27;20070;-80
2022/01/07 10:14:29;;;;;;;21.05;9.77;;;;;;;;;;5133571;27;20145;-80
2022/01/07 10:17:00;;;;;;;22.27;10.10;;;;;;;;;;5133470;27;20059;-80
2022/01/07 10:19:40;;;;;;;18.73;8.95;;;;;;;;;;5133858;27;20082;-80
2022/01/07 10:22:08;;;;;;;;;;;;;;;;;;5149558;27;20596;-80
2022/01/07 10:24:53;;;;;;;16.40;8.90;;;;;;;;;;5161365;27;45541;-80
2022/01/07 10:27:21;;;;;;;20.35;8.50;;;;;;;;;;5143391;27;20087;-80
2022/01/07 10:29:48;;;;;;;18.27;8.73;;;;;;;;;;5136936;27;20059;-80
2022/01/07 10:32:23;;;;;;;20.73;9.85;;;;;;;;;;5134383;27;20052;-80
2022/01/07 10:35:09;;;;;;;19.20;8.50;;;;;;;;;;5129640;27;20051;-80
2022/01/07 10:37:36;;;;;;;15.82;8.70;;;;;;;;;;5120268;27;22189;-79
2022/01/07 10:40:22;;;;;;;16.55;8.57;;;;;;;;;;5144019;27;20058;-80
2022/01/07 10:42:48;;;;;;;21.83;10.05;;;;;;;;;;5132745;27;21020;-80
2022/01/07 10:45:15;;;;;;;15.98;7.50;;;;;;;;;;5136495;27;20062;-80
2022/01/07 10:47:41;;;;;;;21.63;7.97;;;;;;;;;;5155714;27;20087;-80
2022/01/07 10:50:22;;;;;;;14.32;7.18;;;;;;;;;;5128634;27;20132;-80
2022/01/07 10:52:49;;;;;;;15.77;7.65;;;;;;;;;;5127743;27;20480;-80
2022/01/07 10:55:20;;;;;;;19.67;7.22;;;;;;;;;;5152100;27;20058;-80
2022/01/07 10:57:49;;;;;;;15.45;6.95;;;;;;;;;;5169288;27;21447;-80
2022/01/07 11:00:20;;;;;;;10.85;6.05;;;;;;;;;;5158756;27;20077;-80
2022/01/07 11:02:47;;;;;;;11.30;6.07;;;;;;;;;;5168123;27;20057;-80
2022/01/07 11:05:13;;;;;;;13.15;5.88;;;;;;;;;;5154656;27;20064;-80
2022/01/07 11:07:40;;;;;;;14.60;6.03;;;;;;;;;;5151869;27;20048;-80
2022/01/07 11:10:07;;;;;;;10.48;5.13;;;;;;;;;;5143839;27;20627;-81
2022/01/07 11:12:34;;;;;;;12.20;5.57;;;;;;;;;;5136658;27;20077;-80
2022/01/07 11:15:02;;;;;;;24.00;9.55;;;;;;;;;;5170492;27;20105;-81
2022/01/07 11:17:30;;;;;;;19.27;7.22;;;;;;;;;;5134859;27;20101;-81
2022/01/07 11:19:59;;;;;;;11.15;4.80;;;;;;;;;;5160883;27;20043;-80
2022/01/07 11:22:26;;;;;;;14.90;4.63;;;;;;;;;;5143495;27;20097;-81
2022/01/07 11:24:59;;;;;;;10.32;3.28;;;;;;;;;;5159964;27;20055;-81
2022/01/07 11:27:27;;;;;;;10.35;3.38;;;;;;;;;;5130720;27;20100;-80
2022/01/07 11:30:15;;;;;;;8.90;2.75;;;;;;;;;;5136491;27;20051;-80
2022/01/07 11:32:46;;;;;;;13.00;2.85;;;;;;;;;;5141453;27;20051;-80
2022/01/07 11:35:22;;;;;;;11.07;2.80;;;;;;;;;;5165043;27;20074;-81
2022/01/07 11:37:53;;;;;;;12.68;3.42;;;;;;;;;;5136959;27;20046;-81
2022/01/07 11:40:19;;;;;;;;;;;;;;;;;;5142378;27;20059;-80
2022/01/07 11:42:47;;;;;;;10.43;2.58;;;;;;;;;;5174340;27;44679;-81
2022/01/07 11:45:32;;;;;;;8.93;3.30;;;;;;;;;;5165532;27;20073;-81
2022/01/07 11:48:10;;;;;;;9.43;2.90;;;;;;;;;;5130126;27;20047;-80
2022/01/07 11:50:55;;;;;;;7.38;2.30;;;;;;;;;;5151179;27;20043;-81
2022/01/07 11:53:33;;;;;;;9.50;2.13;;;;;;;;;;5143821;27;20047;-81
2022/01/07 11:56:01;;;;;;;12.32;3.53;;;;;;;;;;5142264;27;20121;-81
2022/01/07 11:58:37;;;;;;;12.50;3.00;;;;;;;;;;5129522;27;20086;-80
2022/01/07 12:01:04;;;;;;;7.20;2.33;;;;;;;;;;5140499;27;21017;-81
2022/01/07 12:03:48;;;;;;;16.08;3.55;;;;;;;;;;5151468;27;20053;-80
2022/01/07 12:06:24;;;;;;;9.27;2.85;;;;;;;;;;5126492;27;20067;-81
2022/01/07 12:08:56;;;;;;;14.13;3.03;;;;;;;;;;5150270;27;20055;-80
2022/01/07 12:11:26;;;;;;;8.68;2.28;;;;;;;;;;5134269;27;20047;-80
2022/01/07 12:13:53;;;;;;;12.18;2.75;;;;;;;;;;5136247;27;20055;-79
2022/01/07 12:16:20;;;;;;;8.02;2.30;;;;;;;;;;5150647;27;20054;-80
2022/01/07 12:18:46;;;;;;;15.07;2.40;;;;;;;;;;5155967;27;20070;-79
2022/01/07 12:21:16;;;;;;;6.63;1.80;;;;;;;;;;5156558;27;20095;-80
2022/01/07 12:23:43;;;;;;;9.85;2.40;;;;;;;;;;5140423;27;20075;-80
2022/01/07 12:26:09;;;;;;;13.05;2.30;;;;;;;;;;5157946;27;20051;-80
2022/01/07 12:28:48;;;;;;;9.50;1.90;;;;;;;;;;5136940;27;20123;-78
2022/01/07 12:31:14;;;;;;;8.15;1.85;;;;;;;;;;5153135;27;20130;-80
2022/01/07 12:33:50;;;;;;;9.27;1.80;;;;;;;;;;5154215;27;20139;-80
2022/01/07 12:36:27;;;;;;;11.15;2.50;;;;;;;;;;5147428;27;20163;-78
2022/01/07 12:38:58;;;;;;;9.57;1.90;;;;;;;;;;5141803;27;20497;-79
2022/01/07 12:41:24;;;;;;;12.23;2.17;;;;;;;;;;5143477;27;20054;-77
2022/01/07 12:44:08;;;;;;;13.40;1.65;;;;;;;;;;5160176;27;20129;-79
2022/01/07 12:46:35;;;;;;;8.10;1.35;;;;;;;;;;5155104;27;20080;-77
2022/01/07 12:49:02;;;;;;;7.15;1.50;;;;;;;;;;5164526;27;20089;-78
2022/01/07 12:51:29;;;;;;;4.90;1.10;;;;;;;;;;5144196;27;20051;-81
2022/01/07 12:54:01;;;;;;;8.20;1.40;;;;;;;;;;5127876;27;20047;-78
2022/01/07 12:56:31;;;;;;;6.53;1.40;;;;;;;;;;5135672;27;20047;-78
2022/01/07 12:59:08;;;;;;;7.63;1.45;;;;;;;;;;5143385;27;20059;-78
2022/01/07 13:01:35;;;;;;;7.25;1.40;;;;;;;;;;5146823;27;20058;-77
2022/01/07 13:04:09;;;;;;;8.43;1.58;;;;;;;;;;5134262;27;20044;-80
2022/01/07 13:06:42;;;;;;;7.20;1.40;;;;;;;;;;5121761;27;20549;-78
2022/01/07 13:09:09;;;;;;;9.13;1.52;;;;;;;;;;5141652;27;20054;-79
2022/01/07 13:11:40;;;;;;;5.38;1.70;;;;;;;;;;5141420;27;20150;-78
2022/01/07 13:14:10;;;;;;;6.22;1.40;;;;;;;;;;5129832;27;20079;-78
2022/01/07 13:16:37;;;;;;;6.85;1.35;;;;;;;;;;5130051;27;20614;-78
2022/01/07 13:19:05;;;;;;;6.82;1.17;;;;;;;;;;5138074;27;20055;-78
2022/01/07 13:21:31;;;;;;;7.40;1.00;;;;;;;;;;5162553;27;20127;-77
2022/01/07 13:24:00;;;;;;;5.20;1.15;;;;;;;;;;5146552;27;20143;-77
2022/01/07 13:26:30;;;;;;;5.05;1.40;;;;;;;;;;5152648;27;21059;-79
2022/01/07 13:29:13;;;;;;;3.25;1.00;;;;;;;;;;5137945;27;20082;-78
2022/01/07 13:31:42;;;;;;;8.43;1.25;;;;;;;;;;5134504;27;20655;-78
2022/01/07 13:34:08;;;;;;;4.60;1.17;;;;;;;;;;5130843;27;20051;-77
2022/01/07 13:36:44;;;;;;;9.43;1.15;;;;;;;;;;5132241;27;20055;-79
2022/01/07 13:39:16;;;;;;;5.68;1.52;;;;;;;;;;5149945;27;20571;-77
2022/01/07 13:41:51;;;;;;;4.38;0.90;;;;;;;;;;5155032;27;20086;-78
2022/01/07 13:44:18;;;;;;;5.70;1.17;;;;;;;;;;5144294;27;20478;-78
2022/01/07 13:46:51;;;;;;;5.80;1.55;;;;;;;;;;5131931;27;20055;-79
2022/01/07 13:49:18;;;;;;;6.40;0.93;;;;;;;;;;5146261;27;20051;-77
2022/01/07 13:51:57;;;;;;;7.38;0.90;;;;;;;;;;5167285;27;20094;-77
2022/01/07 13:54:40;;;;;;;5.95;1.23;;;;;;;;;;5134675;27;20083;-78
2022/01/07 13:57:11;;;;;;;8.73;2.47;;;;;;;;;;5127370;27;20055;-77
2022/01/07 13:59:45;;;;;;;8.68;2.80;;;;;;;;;;5131029;27;20138;-78
2022/01/07 14:02:25;;;;;;;7.45;1.70;;;;;;;;;;5128664;27;20156;-78
2022/01/07 14:04:56;;;;;;;7.43;1.30;;;;;;;;;;5141177;27;20051;-78
2022/01/07 14:07:31;;;;;;;8.88;2.33;;;;;;;;;;5131599;27;20097;-78
2022/01/07 14:10:07;;;;;;;5.93;2.40;;;;;;;;;;5127613;27;20555;-78
2022/01/07 14:12:34;;;;;;;5.70;1.20;;;;;;;;;;5134966;27;21504;-78
2022/01/07 14:15:04;;;;;;;5.18;1.48;;;;;;;;;;5128069;27;20059;-79
2022/01/07 14:17:30;;;;;;;8.90;1.58;;;;;;;;;;5134929;27;20136;-78
2022/01/07 14:19:57;;;;;;;6.10;1.38;;;;;;;;;;5124166;27;20632;-80
2022/01/07 14:22:24;;;;;;;4.75;1.00;;;;;;;;;;5149836;27;20502;-80
2022/01/07 14:24:51;;;;;;;5.63;1.17;;;;;;;;;;5143987;27;20135;-80
2022/01/07 14:27:33;;;;;;;3.03;0.88;;;;;;;;;;5146031;27;20085;-80
2022/01/07 14:30:00;;;;;;;7.10;0.90;;;;;;;;;;5131093;27;20074;-81
2022/01/07 14:32:27;;;;;;;10.25;1.20;;;;;;;;;;5131135;27;20134;-79
2022/01/07 14:34:58;;;;;;;5.72;1.27;;;;;;;;;;5149792;27;20051;-79
2022/01/07 14:37:26;;;;;;;5.60;1.10;;;;;;;;;;5124849;27;20086;-81
2022/01/07 14:39:53;;;;;;;10.27;1.30;;;;;;;;;;5149387;27;20132;-80
2022/01/07 14:42:19;;;;;;;6.32;0.90;;;;;;;;;;5154889;27;20086;-79
2022/01/07 14:44:45;;;;;;;6.10;0.85;;;;;;;;;;5139218;27;20090;-80